sensor_id;sensor_type;location;lat;lon;timestamp;temperature;humidity
23633;DHT22;11993;48.748;9.166;2023-12-28T00:00:18;8.20;46.20
23633;DHT22;11993;48.748;9.166;2023-12-28T00:02:43;8.20;46.30
23633;DHT22;11993;48.748;9.166;2023-12-28T00:05:09;8.20;46.40
23633;DHT22;11993;48.748;9.166;2023-12-28T00:07:35;8.20;46.30
23633;DHT22;11993;48.748;9.166;2023-12-28T00:10:01;8.20;46.10
23633;DHT22;11993;48.748;9.166;2023-12-28T00:12:27;8.20;46.10
23633;DHT22;11993;48.748;9.166;2023-12-28T00:14:53;8.20;45.80
23633;DHT22;11993;48.748;9.166;2023-12-28T00:17:18;8.30;45.90
23633;DHT22;11993;48.748;9.166;2023-12-28T00:19:44;8.30;45.70
23633;DHT22;11993;48.748;9.166;2023-12-28T00:22:09;8.30;45.90
23633;DHT22;11993;48.748;9.166;2023-12-28T00:24:35;8.30;46.20
23633;DHT22;11993;48.748;9.166;2023-12-28T00:27:00;8.20;46.00
23633;DHT22;11993;48.748;9.166;2023-12-28T00:29:26;8.20;46.00
23633;DHT22;11993;48.748;9.166;2023-12-28T00:31:54;8.20;46.00
23633;DHT22;11993;48.748;9.166;2023-12-28T00:34:19;8.20;46.00
23633;DHT22;11993;48.748;9.166;2023-12-28T00:36:45;8.20;46.10
23633;DHT22;11993;48.748;9.166;2023-12-28T00:39:10;8.20;46.10
23633;DHT22;11993;48.748;9.166;2023-12-28T00:41:36;8.30;45.90
23633;DHT22;11993;48.748;9.166;2023-12-28T00:44:01;8.30;45.90
23633;DHT22;11993;48.748;9.166;2023-12-28T00:46:27;8.30;45.80
23633;DHT22;11993;48.748;9.166;2023-12-28T00:48:53;8.30;45.90
23633;DHT22;11993;48.748;9.166;2023-12-28T00:51:19;8.30;45.90
23633;DHT22;11993;48.748;9.166;2023-12-28T00:53:45;8.40;45.80
23633;DHT22;11993;48.748;9.166;2023-12-28T00:56:10;8.20;46.20
23633;DHT22;11993;48.748;9.166;2023-12-28T00:58:39;8.20;46.50
23633;DHT22;11993;48.748;9.166;2023-12-28T01:01:05;8.20;46.40
23633;DHT22;11993;48.748;9.166;2023-12-28T01:03:30;8.20;46.50
23633;DHT22;11993;48.748;9.166;2023-12-28T01:05:56;8.20;46.60
23633;DHT22;11993;48.748;9.166;2023-12-28T01:08:21;8.20;46.50
23633;DHT22;11993;48.748;9.166;2023-12-28T01:10:47;8.10;46.80
23633;DHT22;11993;48.748;9.166;2023-12-28T01:13:12;8.10;47.00
23633;DHT22;11993;48.748;9.166;2023-12-28T01:15:38;8.10;47.10
23633;DHT22;11993;48.748;9.166;2023-12-28T01:18:04;8.10;46.90
23633;DHT22;11993;48.748;9.166;2023-12-28T01:20:30;8.10;47.10
23633;DHT22;11993;48.748;9.166;2023-12-28T01:22:55;8.10;47.20
23633;DHT22;11993;48.748;9.166;2023-12-28T01:25:21;8.10;47.00
23633;DHT22;11993;48.748;9.166;2023-12-28T01:27:46;8.00;47.30
23633;DHT22;11993;48.748;9.166;2023-12-28T01:30:12;8.10;47.20
23633;DHT22;11993;48.748;9.166;2023-12-28T01:32:37;8.00;47.60
23633;DHT22;11993;48.748;9.166;2023-12-28T01:35:03;8.00;47.70
23633;DHT22;11993;48.748;9.166;2023-12-28T01:37:29;7.90;47.60
23633;DHT22;11993;48.748;9.166;2023-12-28T01:39:56;8.00;47.40
23633;DHT22;11993;48.748;9.166;2023-12-28T01:42:22;8.10;47.50
23633;DHT22;11993;48.748;9.166;2023-12-28T01:44:47;8.10;47.40
23633;DHT22;11993;48.748;9.166;2023-12-28T01:47:13;8.00;47.50
23633;DHT22;11993;48.748;9.166;2023-12-28T01:49:39;8.00;47.80
23633;DHT22;11993;48.748;9.166;2023-12-28T01:52:06;8.00;47.80
23633;DHT22;11993;48.748;9.166;2023-12-28T01:54:33;8.00;48.00
23633;DHT22;11993;48.748;9.166;2023-12-28T01:57:00;7.80;48.50
23633;DHT22;11993;48.748;9.166;2023-12-28T01:59:26;7.90;48.30
23633;DHT22;11993;48.748;9.166;2023-12-28T02:01:52;7.90;48.50
23633;DHT22;11993;48.748;9.166;2023-12-28T02:04:18;7.80;48.70
23633;DHT22;11993;48.748;9.166;2023-12-28T02:06:47;7.80;48.60
23633;DHT22;11993;48.748;9.166;2023-12-28T02:09:13;7.70;48.70
23633;DHT22;11993;48.748;9.166;2023-12-28T02:11:38;7.80;48.70
23633;DHT22;11993;48.748;9.166;2023-12-28T02:14:04;7.60;49.40
23633;DHT22;11993;48.748;9.166;2023-12-28T02:16:33;7.60;49.50
23633;DHT22;11993;48.748;9.166;2023-12-28T02:19:12;7.60;49.60
23633;DHT22;11993;48.748;9.166;2023-12-28T02:21:41;7.70;49.30
23633;DHT22;11993;48.748;9.166;2023-12-28T02:24:06;7.70;49.20
23633;DHT22;11993;48.748;9.166;2023-12-28T02:26:32;7.60;49.50
23633;DHT22;11993;48.748;9.166;2023-12-28T02:28:57;7.60;49.60
23633;DHT22;11993;48.748;9.166;2023-12-28T02:31:42;7.60;49.60
23633;DHT22;11993;48.748;9.166;2023-12-28T02:34:16;7.60;49.70
23633;DHT22;11993;48.748;9.166;2023-12-28T02:36:44;7.60;49.60
23633;DHT22;11993;48.748;9.166;2023-12-28T02:39:14;7.60;49.70
23633;DHT22;11993;48.748;9.166;2023-12-28T02:41:41;7.60;49.70
23633;DHT22;11993;48.748;9.166;2023-12-28T02:44:07;7.60;49.70
23633;DHT22;11993;48.748;9.166;2023-12-28T02:46:33;7.60;49.60
23633;DHT22;11993;48.748;9.166;2023-12-28T02:48:58;7.60;49.80
23633;DHT22;11993;48.748;9.166;2023-12-28T02:51:25;7.60;49.70
23633;DHT22;11993;48.748;9.166;2023-12-28T02:53:51;7.60;49.70
23633;DHT22;11993;48.748;9.166;2023-12-28T02:56:16;7.70;49.60
23633;DHT22;11993;48.748;9.166;2023-12-28T02:58:42;7.60;49.60
23633;DHT22;11993;48.748;9.166;2023-12-28T03:01:07;7.60;49.80
23633;DHT22;11993;48.748;9.166;2023-12-28T03:03:33;7.60;50.10
23633;DHT22;11993;48.748;9.166;2023-12-28T03:05:58;7.50;50.40
23633;DHT22;11993;48.748;9.166;2023-12-28T03:08:24;7.50;50.30
23633;DHT22;11993;48.748;9.166;2023-12-28T03:10:49;7.50;50.40
23633;DHT22;11993;48.748;9.166;2023-12-28T03:13:15;7.40;50.60
23633;DHT22;11993;48.748;9.166;2023-12-28T03:15:40;7.40;50.90
23633;DHT22;11993;48.748;9.166;2023-12-28T03:18:06;7.50;50.40
23633;DHT22;11993;48.748;9.166;2023-12-28T03:20:31;7.40;50.50
23633;DHT22;11993;48.748;9.166;2023-12-28T03:22:57;7.40;50.80
23633;DHT22;11993;48.748;9.166;2023-12-28T03:25:22;7.40;50.70
23633;DHT22;11993;48.748;9.166;2023-12-28T03:27:48;7.40;50.70
23633;DHT22;11993;48.748;9.166;2023-12-28T03:30:14;7.40;50.70
23633;DHT22;11993;48.748;9.166;2023-12-28T03:32:40;7.50;50.60
23633;DHT22;11993;48.748;9.166;2023-12-28T03:35:05;7.50;50.60
23633;DHT22;11993;48.748;9.166;2023-12-28T03:37:32;7.40;50.80
23633;DHT22;11993;48.748;9.166;2023-12-28T03:39:57;7.50;50.60
23633;DHT22;11993;48.748;9.166;2023-12-28T03:42:23;7.60;50.50
23633;DHT22;11993;48.748;9.166;2023-12-28T03:44:49;7.60;50.10
23633;DHT22;11993;48.748;9.166;2023-12-28T03:47:14;7.60;50.40
23633;DHT22;11993;48.748;9.166;2023-12-28T03:49:40;7.60;50.10
23633;DHT22;11993;48.748;9.166;2023-12-28T03:52:05;7.80;49.50
23633;DHT22;11993;48.748;9.166;2023-12-28T03:54:31;7.80;49.70
23633;DHT22;11993;48.748;9.166;2023-12-28T03:56:56;7.90;49.30
23633;DHT22;11993;48.748;9.166;2023-12-28T03:59:22;8.00;48.80
23633;DHT22;11993;48.748;9.166;2023-12-28T04:01:48;8.10;48.60
23633;DHT22;11993;48.748;9.166;2023-12-28T04:04:13;8.20;48.60
23633;DHT22;11993;48.748;9.166;2023-12-28T04:06:39;8.20;48.40
23633;DHT22;11993;48.748;9.166;2023-12-28T04:09:07;8.30;48.20
23633;DHT22;11993;48.748;9.166;2023-12-28T04:11:32;8.30;48.20
23633;DHT22;11993;48.748;9.166;2023-12-28T04:13:58;8.20;48.60
23633;DHT22;11993;48.748;9.166;2023-12-28T04:16:23;8.20;48.90
23633;DHT22;11993;48.748;9.166;2023-12-28T04:18:49;8.20;48.90
23633;DHT22;11993;48.748;9.166;2023-12-28T04:21:15;8.20;49.00
23633;DHT22;11993;48.748;9.166;2023-12-28T04:23:41;8.20;48.90
23633;DHT22;11993;48.748;9.166;2023-12-28T04:26:07;8.20;48.90
23633;DHT22;11993;48.748;9.166;2023-12-28T04:28:32;8.30;48.70
23633;DHT22;11993;48.748;9.166;2023-12-28T04:31:05;8.20;48.60
23633;DHT22;11993;48.748;9.166;2023-12-28T04:33:31;8.30;48.60
23633;DHT22;11993;48.748;9.166;2023-12-28T04:35:57;8.40;48.40
23633;DHT22;11993;48.748;9.166;2023-12-28T04:38:23;8.40;48.30
23633;DHT22;11993;48.748;9.166;2023-12-28T04:40:48;8.40;48.50
23633;DHT22;11993;48.748;9.166;2023-12-28T04:43:14;8.40;48.40
23633;DHT22;11993;48.748;9.166;2023-12-28T04:45:39;8.40;48.40
23633;DHT22;11993;48.748;9.166;2023-12-28T04:48:05;8.50;48.50
23633;DHT22;11993;48.748;9.166;2023-12-28T04:50:30;8.50;48.60
23633;DHT22;11993;48.748;9.166;2023-12-28T04:52:56;8.50;48.50
23633;DHT22;11993;48.748;9.166;2023-12-28T04:55:21;8.50;48.60
23633;DHT22;11993;48.748;9.166;2023-12-28T04:57:49;8.40;49.00
23633;DHT22;11993;48.748;9.166;2023-12-28T05:00:16;8.40;49.20
23633;DHT22;11993;48.748;9.166;2023-12-28T05:02:42;8.40;49.20
23633;DHT22;11993;48.748;9.166;2023-12-28T05:05:07;8.50;49.40
23633;DHT22;11993;48.748;9.166;2023-12-28T05:07:35;8.50;49.50
23633;DHT22;11993;48.748;9.166;2023-12-28T05:10:01;8.40;49.70
23633;DHT22;11993;48.748;9.166;2023-12-28T05:12:26;8.50;49.70
23633;DHT22;11993;48.748;9.166;2023-12-28T05:14:52;8.50;49.90
23633;DHT22;11993;48.748;9.166;2023-12-28T05:17:18;8.60;50.10
23633;DHT22;11993;48.748;9.166;2023-12-28T05:19:43;8.60;50.10
23633;DHT22;11993;48.748;9.166;2023-12-28T05:22:09;8.60;50.30
23633;DHT22;11993;48.748;9.166;2023-12-28T05:24:36;8.60;50.10
23633;DHT22;11993;48.748;9.166;2023-12-28T05:27:02;8.70;50.40
23633;DHT22;11993;48.748;9.166;2023-12-28T05:29:27;8.70;50.70
23633;DHT22;11993;48.748;9.166;2023-12-28T05:31:53;8.70;50.70
23633;DHT22;11993;48.748;9.166;2023-12-28T05:34:18;8.70;50.60
23633;DHT22;11993;48.748;9.166;2023-12-28T05:36:44;8.70;50.60
23633;DHT22;11993;48.748;9.166;2023-12-28T05:39:11;8.80;50.60
23633;DHT22;11993;48.748;9.166;2023-12-28T05:41:39;8.80;50.50
23633;DHT22;11993;48.748;9.166;2023-12-28T05:44:05;8.70;50.70
23633;DHT22;11993;48.748;9.166;2023-12-28T05:46:30;8.80;50.60
23633;DHT22;11993;48.748;9.166;2023-12-28T05:48:56;8.90;50.60
23633;DHT22;11993;48.748;9.166;2023-12-28T05:51:21;8.80;51.00
23633;DHT22;11993;48.748;9.166;2023-12-28T05:53:47;8.80;51.30
23633;DHT22;11993;48.748;9.166;2023-12-28T05:56:12;8.80;51.30
23633;DHT22;11993;48.748;9.166;2023-12-28T05:58:38;8.80;51.60
23633;DHT22;11993;48.748;9.166;2023-12-28T06:01:04;8.80;51.70
23633;DHT22;11993;48.748;9.166;2023-12-28T06:03:31;8.90;51.80
23633;DHT22;11993;48.748;9.166;2023-12-28T06:05:56;8.90;51.90
23633;DHT22;11993;48.748;9.166;2023-12-28T06:08:22;8.90;52.00
23633;DHT22;11993;48.748;9.166;2023-12-28T06:10:47;8.90;51.90
23633;DHT22;11993;48.748;9.166;2023-12-28T06:13:13;8.90;52.00
23633;DHT22;11993;48.748;9.166;2023-12-28T06:15:38;8.90;52.00
23633;DHT22;11993;48.748;9.166;2023-12-28T06:18:04;9.00;51.80
23633;DHT22;11993;48.748;9.166;2023-12-28T06:20:30;8.90;52.10
23633;DHT22;11993;48.748;9.166;2023-12-28T06:22:55;8.90;52.20
23633;DHT22;11993;48.748;9.166;2023-12-28T06:25:21;8.90;52.30
23633;DHT22;11993;48.748;9.166;2023-12-28T06:27:46;8.90;51.80
23633;DHT22;11993;48.748;9.166;2023-12-28T06:30:12;8.90;52.00
23633;DHT22;11993;48.748;9.166;2023-12-28T06:32:38;9.00;52.20
23633;DHT22;11993;48.748;9.166;2023-12-28T06:35:04;8.90;52.10
23633;DHT22;11993;48.748;9.166;2023-12-28T06:37:29;8.90;52.60
23633;DHT22;11993;48.748;9.166;2023-12-28T06:39:55;9.00;52.80
23633;DHT22;11993;48.748;9.166;2023-12-28T06:42:20;9.00;52.90
23633;DHT22;11993;48.748;9.166;2023-12-28T06:44:46;8.90;53.50
23633;DHT22;11993;48.748;9.166;2023-12-28T06:47:11;9.00;53.60
23633;DHT22;11993;48.748;9.166;2023-12-28T06:49:37;9.10;54.20
23633;DHT22;11993;48.748;9.166;2023-12-28T06:52:02;9.10;54.30
23633;DHT22;11993;48.748;9.166;2023-12-28T06:54:28;9.20;54.20
23633;DHT22;11993;48.748;9.166;2023-12-28T06:56:53;9.20;54.60
23633;DHT22;11993;48.748;9.166;2023-12-28T06:59:19;9.20;54.80
23633;DHT22;11993;48.748;9.166;2023-12-28T07:01:44;9.20;55.40
23633;DHT22;11993;48.748;9.166;2023-12-28T07:04:11;9.20;55.60
23633;DHT22;11993;48.748;9.166;2023-12-28T07:06:37;9.20;55.80
23633;DHT22;11993;48.748;9.166;2023-12-28T07:09:03;9.20;56.10
23633;DHT22;11993;48.748;9.166;2023-12-28T07:11:30;9.20;56.30
23633;DHT22;11993;48.748;9.166;2023-12-28T07:13:55;9.30;56.20
23633;DHT22;11993;48.748;9.166;2023-12-28T07:16:21;9.20;56.70
23633;DHT22;11993;48.748;9.166;2023-12-28T07:18:46;9.30;56.90
23633;DHT22;11993;48.748;9.166;2023-12-28T07:21:12;9.40;56.80
23633;DHT22;11993;48.748;9.166;2023-12-28T07:23:37;9.50;56.70
23633;DHT22;11993;48.748;9.166;2023-12-28T07:26:04;9.30;57.20
23633;DHT22;11993;48.748;9.166;2023-12-28T07:28:29;9.40;57.10
23633;DHT22;11993;48.748;9.166;2023-12-28T07:30:55;9.40;57.00
23633;DHT22;11993;48.748;9.166;2023-12-28T07:33:21;9.40;57.40
23633;DHT22;11993;48.748;9.166;2023-12-28T07:35:46;9.40;57.30
23633;DHT22;11993;48.748;9.166;2023-12-28T07:38:12;9.40;57.70
23633;DHT22;11993;48.748;9.166;2023-12-28T07:40:38;9.30;57.60
23633;DHT22;11993;48.748;9.166;2023-12-28T07:43:04;9.30;57.80
23633;DHT22;11993;48.748;9.166;2023-12-28T07:45:30;9.40;57.30
23633;DHT22;11993;48.748;9.166;2023-12-28T07:47:56;9.40;57.20
23633;DHT22;11993;48.748;9.166;2023-12-28T07:50:21;9.30;57.90
23633;DHT22;11993;48.748;9.166;2023-12-28T07:52:48;9.50;57.70
23633;DHT22;11993;48.748;9.166;2023-12-28T07:55:14;9.40;57.30
23633;DHT22;11993;48.748;9.166;2023-12-28T07:57:39;9.40;57.40
23633;DHT22;11993;48.748;9.166;2023-12-28T08:00:06;9.40;57.60
23633;DHT22;11993;48.748;9.166;2023-12-28T08:02:31;9.50;57.30
23633;DHT22;11993;48.748;9.166;2023-12-28T08:04:57;9.50;57.30
23633;DHT22;11993;48.748;9.166;2023-12-28T08:07:22;9.60;57.00
23633;DHT22;11993;48.748;9.166;2023-12-28T08:09:48;9.50;57.40
23633;DHT22;11993;48.748;9.166;2023-12-28T08:12:13;9.50;57.60
23633;DHT22;11993;48.748;9.166;2023-12-28T08:14:39;9.50;58.00
23633;DHT22;11993;48.748;9.166;2023-12-28T08:17:04;9.50;58.20
23633;DHT22;11993;48.748;9.166;2023-12-28T08:19:30;9.50;58.10
23633;DHT22;11993;48.748;9.166;2023-12-28T08:21:55;9.60;58.30
23633;DHT22;11993;48.748;9.166;2023-12-28T08:24:21;9.60;58.30
23633;DHT22;11993;48.748;9.166;2023-12-28T08:26:47;9.50;58.40
23633;DHT22;11993;48.748;9.166;2023-12-28T08:29:12;9.60;57.70
23633;DHT22;11993;48.748;9.166;2023-12-28T08:31:38;9.60;57.70
23633;DHT22;11993;48.748;9.166;2023-12-28T08:34:04;9.50;58.00
23633;DHT22;11993;48.748;9.166;2023-12-28T08:36:29;9.50;58.20
23633;DHT22;11993;48.748;9.166;2023-12-28T08:38:55;9.60;58.40
23633;DHT22;11993;48.748;9.166;2023-12-28T08:41:21;9.70;57.70
23633;DHT22;11993;48.748;9.166;2023-12-28T08:43:49;9.70;57.70
23633;DHT22;11993;48.748;9.166;2023-12-28T08:46:15;9.70;57.80
23633;DHT22;11993;48.748;9.166;2023-12-28T08:48:41;9.90;57.60
23633;DHT22;11993;48.748;9.166;2023-12-28T08:51:07;9.80;57.60
23633;DHT22;11993;48.748;9.166;2023-12-28T08:53:34;9.90;57.80
23633;DHT22;11993;48.748;9.166;2023-12-28T08:55:59;9.90;57.80
23633;DHT22;11993;48.748;9.166;2023-12-28T08:58:25;10.00;57.80
23633;DHT22;11993;48.748;9.166;2023-12-28T09:00:51;9.90;58.00
23633;DHT22;11993;48.748;9.166;2023-12-28T09:03:16;9.90;58.10
23633;DHT22;11993;48.748;9.166;2023-12-28T09:05:43;9.80;58.40
23633;DHT22;11993;48.748;9.166;2023-12-28T09:08:08;9.80;58.90
23633;DHT22;11993;48.748;9.166;2023-12-28T09:10:34;9.90;60.00
23633;DHT22;11993;48.748;9.166;2023-12-28T09:12:59;10.00;60.20
23633;DHT22;11993;48.748;9.166;2023-12-28T09:15:25;9.90;60.40
23633;DHT22;11993;48.748;9.166;2023-12-28T09:17:51;10.00;61.10
23633;DHT22;11993;48.748;9.166;2023-12-28T09:20:18;9.90;62.00
23633;DHT22;11993;48.748;9.166;2023-12-28T09:22:44;10.00;62.60
23633;DHT22;11993;48.748;9.166;2023-12-28T09:25:09;9.90;63.50
23633;DHT22;11993;48.748;9.166;2023-12-28T09:27:35;9.90;63.70
23633;DHT22;11993;48.748;9.166;2023-12-28T09:30:00;9.90;64.30
23633;DHT22;11993;48.748;9.166;2023-12-28T09:32:26;9.90;64.30
23633;DHT22;11993;48.748;9.166;2023-12-28T09:34:51;9.90;64.70
23633;DHT22;11993;48.748;9.166;2023-12-28T09:37:17;10.00;64.80
23633;DHT22;11993;48.748;9.166;2023-12-28T09:39:42;10.00;65.00
23633;DHT22;11993;48.748;9.166;2023-12-28T09:42:19;10.00;65.30
23633;DHT22;11993;48.748;9.166;2023-12-28T09:44:47;10.00;65.20
23633;DHT22;11993;48.748;9.166;2023-12-28T09:47:17;10.00;65.00
23633;DHT22;11993;48.748;9.166;2023-12-28T09:49:43;10.10;65.00
23633;DHT22;11993;48.748;9.166;2023-12-28T09:52:09;10.00;64.60
23633;DHT22;11993;48.748;9.166;2023-12-28T09:54:35;10.00;64.20
23633;DHT22;11993;48.748;9.166;2023-12-28T09:57:01;10.10;64.10
23633;DHT22;11993;48.748;9.166;2023-12-28T09:59:27;10.10;64.00
23633;DHT22;11993;48.748;9.166;2023-12-28T10:01:55;10.10;63.20
23633;DHT22;11993;48.748;9.166;2023-12-28T10:04:21;10.10;61.80
23633;DHT22;11993;48.748;9.166;2023-12-28T10:06:47;10.20;61.40
23633;DHT22;11993;48.748;9.166;2023-12-28T10:09:12;10.20;60.70
23633;DHT22;11993;48.748;9.166;2023-12-28T10:11:38;10.10;61.00
23633;DHT22;11993;48.748;9.166;2023-12-28T10:14:04;10.20;61.10
23633;DHT22;11993;48.748;9.166;2023-12-28T10:16:30;10.20;61.30
23633;DHT22;11993;48.748;9.166;2023-12-28T10:18:56;10.20;61.40
23633;DHT22;11993;48.748;9.166;2023-12-28T10:21:25;10.20;62.10
23633;DHT22;11993;48.748;9.166;2023-12-28T10:23:50;10.20;61.80
23633;DHT22;11993;48.748;9.166;2023-12-28T10:26:18;10.10;62.20
23633;DHT22;11993;48.748;9.166;2023-12-28T10:28:43;10.20;62.00
23633;DHT22;11993;48.748;9.166;2023-12-28T10:31:09;10.20;62.30
23633;DHT22;11993;48.748;9.166;2023-12-28T10:33:38;10.20;62.30
23633;DHT22;11993;48.748;9.166;2023-12-28T10:36:08;10.10;62.40
23633;DHT22;11993;48.748;9.166;2023-12-28T10:38:37;10.20;63.00
23633;DHT22;11993;48.748;9.166;2023-12-28T10:41:06;10.10;63.20
23633;DHT22;11993;48.748;9.166;2023-12-28T10:43:42;10.10;63.30
23633;DHT22;11993;48.748;9.166;2023-12-28T10:46:13;10.20;63.70
23633;DHT22;11993;48.748;9.166;2023-12-28T10:48:41;10.20;63.80
23633;DHT22;11993;48.748;9.166;2023-12-28T10:51:10;10.20;64.10
23633;DHT22;11993;48.748;9.166;2023-12-28T10:53:49;10.30;64.30
23633;DHT22;11993;48.748;9.166;2023-12-28T10:56:36;10.30;64.30
23633;DHT22;11993;48.748;9.166;2023-12-28T11:02:01;10.50;64.70
23633;DHT22;11993;48.748;9.166;2023-12-28T11:04:41;10.40;65.20
23633;DHT22;11993;48.748;9.166;2023-12-28T11:07:10;10.50;65.20
23633;DHT22;11993;48.748;9.166;2023-12-28T11:09:37;10.50;65.30
23633;DHT22;11993;48.748;9.166;2023-12-28T11:12:06;10.60;65.20
23633;DHT22;11993;48.748;9.166;2023-12-28T11:14:34;10.60;65.40
23633;DHT22;11993;48.748;9.166;2023-12-28T11:17:00;10.60;65.90
23633;DHT22;11993;48.748;9.166;2023-12-28T11:19:28;10.50;66.60
23633;DHT22;11993;48.748;9.166;2023-12-28T11:21:55;10.60;66.70
23633;DHT22;11993;48.748;9.166;2023-12-28T11:24:22;10.60;66.90
23633;DHT22;11993;48.748;9.166;2023-12-28T11:26:54;10.70;67.80
23633;DHT22;11993;48.748;9.166;2023-12-28T11:29:23;10.70;67.50
23633;DHT22;11993;48.748;9.166;2023-12-28T11:31:53;10.70;67.80
23633;DHT22;11993;48.748;9.166;2023-12-28T11:34:24;10.80;67.20
23633;DHT22;11993;48.748;9.166;2023-12-28T11:36:52;10.70;67.60
23633;DHT22;11993;48.748;9.166;2023-12-28T11:39:32;10.70;67.90
23633;DHT22;11993;48.748;9.166;2023-12-28T11:42:01;10.70;68.10
23633;DHT22;11993;48.748;9.166;2023-12-28T11:44:31;10.60;68.50
23633;DHT22;11993;48.748;9.166;2023-12-28T11:47:14;10.60;68.30
23633;DHT22;11993;48.748;9.166;2023-12-28T11:49:40;10.60;68.50
23633;DHT22;11993;48.748;9.166;2023-12-28T11:52:07;10.60;68.40
23633;DHT22;11993;48.748;9.166;2023-12-28T11:54:33;10.70;68.50
23633;DHT22;11993;48.748;9.166;2023-12-28T11:56:59;10.50;68.50
23633;DHT22;11993;48.748;9.166;2023-12-28T11:59:24;10.50;68.60
23633;DHT22;11993;48.748;9.166;2023-12-28T12:01:51;10.40;68.20
23633;DHT22;11993;48.748;9.166;2023-12-28T12:04:18;10.50;68.10
23633;DHT22;11993;48.748;9.166;2023-12-28T12:06:45;10.40;68.10
23633;DHT22;11993;48.748;9.166;2023-12-28T12:09:12;10.50;67.90
23633;DHT22;11993;48.748;9.166;2023-12-28T12:11:37;10.50;68.00
23633;DHT22;11993;48.748;9.166;2023-12-28T12:14:07;10.50;67.90
23633;DHT22;11993;48.748;9.166;2023-12-28T12:16:35;10.40;68.10
23633;DHT22;11993;48.748;9.166;2023-12-28T12:19:01;10.40;68.10
23633;DHT22;11993;48.748;9.166;2023-12-28T12:21:27;10.30;68.40
23633;DHT22;11993;48.748;9.166;2023-12-28T12:23:54;10.40;68.40
23633;DHT22;11993;48.748;9.166;2023-12-28T12:26:20;10.40;68.20
23633;DHT22;11993;48.748;9.166;2023-12-28T12:28:46;10.40;68.40
23633;DHT22;11993;48.748;9.166;2023-12-28T12:31:12;10.50;68.20
23633;DHT22;11993;48.748;9.166;2023-12-28T12:33:39;10.50;68.40
23633;DHT22;11993;48.748;9.166;2023-12-28T12:36:06;10.50;68.50
23633;DHT22;11993;48.748;9.166;2023-12-28T12:38:33;10.60;68.20
23633;DHT22;11993;48.748;9.166;2023-12-28T12:40:59;10.40;68.70
23633;DHT22;11993;48.748;9.166;2023-12-28T12:43:24;10.50;68.40
23633;DHT22;11993;48.748;9.166;2023-12-28T12:45:51;10.60;68.30
23633;DHT22;11993;48.748;9.166;2023-12-28T12:48:17;10.60;68.20
23633;DHT22;11993;48.748;9.166;2023-12-28T12:50:43;10.60;68.30
23633;DHT22;11993;48.748;9.166;2023-12-28T12:53:09;10.60;68.60
23633;DHT22;11993;48.748;9.166;2023-12-28T12:55:36;10.60;68.60
23633;DHT22;11993;48.748;9.166;2023-12-28T12:58:10;10.60;68.60
23633;DHT22;11993;48.748;9.166;2023-12-28T13:00:38;10.60;68.90
23633;DHT22;11993;48.748;9.166;2023-12-28T13:03:08;10.60;69.50
23633;DHT22;11993;48.748;9.166;2023-12-28T13:05:35;10.60;69.10
23633;DHT22;11993;48.748;9.166;2023-12-28T13:08:01;10.60;69.10
23633;DHT22;11993;48.748;9.166;2023-12-28T13:10:26;10.60;68.90
23633;DHT22;11993;48.748;9.166;2023-12-28T13:12:52;10.60;69.20
23633;DHT22;11993;48.748;9.166;2023-12-28T13:15:18;10.60;69.00
23633;DHT22;11993;48.748;9.166;2023-12-28T13:17:44;10.60;69.00
23633;DHT22;11993;48.748;9.166;2023-12-28T13:20:10;10.60;69.20
23633;DHT22;11993;48.748;9.166;2023-12-28T13:22:36;10.60;69.50
23633;DHT22;11993;48.748;9.166;2023-12-28T13:25:01;10.60;69.60
23633;DHT22;11993;48.748;9.166;2023-12-28T13:27:27;10.60;69.80
23633;DHT22;11993;48.748;9.166;2023-12-28T13:29:54;10.60;69.80
23633;DHT22;11993;48.748;9.166;2023-12-28T13:32:20;10.50;70.00
23633;DHT22;11993;48.748;9.166;2023-12-28T13:34:46;10.40;70.50
23633;DHT22;11993;48.748;9.166;2023-12-28T13:37:12;10.40;71.00
23633;DHT22;11993;48.748;9.166;2023-12-28T13:39:37;10.30;71.60
23633;DHT22;11993;48.748;9.166;2023-12-28T13:42:07;10.40;72.10
23633;DHT22;11993;48.748;9.166;2023-12-28T13:44:36;10.40;72.30
23633;DHT22;11993;48.748;9.166;2023-12-28T13:47:03;10.40;72.40
23633;DHT22;11993;48.748;9.166;2023-12-28T13:49:29;10.30;72.60
23633;DHT22;11993;48.748;9.166;2023-12-28T13:51:55;10.30;73.20
23633;DHT22;11993;48.748;9.166;2023-12-28T13:54:21;10.30;73.20
23633;DHT22;11993;48.748;9.166;2023-12-28T13:56:46;10.30;73.50
23633;DHT22;11993;48.748;9.166;2023-12-28T13:59:13;10.30;73.50
23633;DHT22;11993;48.748;9.166;2023-12-28T14:01:39;10.40;73.60
23633;DHT22;11993;48.748;9.166;2023-12-28T14:04:05;10.30;73.90
23633;DHT22;11993;48.748;9.166;2023-12-28T14:06:31;10.20;74.40
23633;DHT22;11993;48.748;9.166;2023-12-28T14:08:56;10.20;74.60
23633;DHT22;11993;48.748;9.166;2023-12-28T14:11:23;10.10;74.90
23633;DHT22;11993;48.748;9.166;2023-12-28T14:13:49;10.20;74.90
23633;DHT22;11993;48.748;9.166;2023-12-28T14:16:17;10.10;75.10
23633;DHT22;11993;48.748;9.166;2023-12-28T14:18:42;10.10;75.10
23633;DHT22;11993;48.748;9.166;2023-12-28T14:21:09;10.10;75.10
23633;DHT22;11993;48.748;9.166;2023-12-28T14:23:35;10.10;75.20
23633;DHT22;11993;48.748;9.166;2023-12-28T14:26:14;10.10;75.30
23633;DHT22;11993;48.748;9.166;2023-12-28T14:28:44;10.00;75.80
23633;DHT22;11993;48.748;9.166;2023-12-28T14:31:11;10.00;76.00
23633;DHT22;11993;48.748;9.166;2023-12-28T14:33:37;10.10;75.90
23633;DHT22;11993;48.748;9.166;2023-12-28T14:36:15;10.10;76.10
23633;DHT22;11993;48.748;9.166;2023-12-28T14:38:43;10.00;75.60
23633;DHT22;11993;48.748;9.166;2023-12-28T14:41:08;9.90;75.80
23633;DHT22;11993;48.748;9.166;2023-12-28T14:43:34;9.80;76.50
23633;DHT22;11993;48.748;9.166;2023-12-28T14:45:59;9.90;76.20
23633;DHT22;11993;48.748;9.166;2023-12-28T14:48:25;9.90;76.40
23633;DHT22;11993;48.748;9.166;2023-12-28T14:50:50;9.90;76.10
23633;DHT22;11993;48.748;9.166;2023-12-28T14:53:16;9.70;76.50
23633;DHT22;11993;48.748;9.166;2023-12-28T14:55:41;9.80;76.50
23633;DHT22;11993;48.748;9.166;2023-12-28T14:58:07;9.70;76.20
23633;DHT22;11993;48.748;9.166;2023-12-28T15:00:32;9.70;76.70
23633;DHT22;11993;48.748;9.166;2023-12-28T15:02:58;9.70;76.20
23633;DHT22;11993;48.748;9.166;2023-12-28T15:05:23;9.80;76.30
23633;DHT22;11993;48.748;9.166;2023-12-28T15:07:49;9.70;76.30
23633;DHT22;11993;48.748;9.166;2023-12-28T15:10:15;9.60;76.60
23633;DHT22;11993;48.748;9.166;2023-12-28T15:12:41;9.60;76.40
23633;DHT22;11993;48.748;9.166;2023-12-28T15:15:07;9.70;76.50
23633;DHT22;11993;48.748;9.166;2023-12-28T15:17:33;9.70;76.50
23633;DHT22;11993;48.748;9.166;2023-12-28T15:19:58;9.70;76.60
23633;DHT22;11993;48.748;9.166;2023-12-28T15:22:25;9.60;76.90
23633;DHT22;11993;48.748;9.166;2023-12-28T15:24:51;9.60;77.10
23633;DHT22;11993;48.748;9.166;2023-12-28T15:27:17;9.60;76.90
23633;DHT22;11993;48.748;9.166;2023-12-28T15:29:42;9.60;76.90
23633;DHT22;11993;48.748;9.166;2023-12-28T15:32:08;9.50;76.80
23633;DHT22;11993;48.748;9.166;2023-12-28T15:34:34;9.60;76.60
23633;DHT22;11993;48.748;9.166;2023-12-28T15:36:59;9.60;76.30